Auburn Junction, Indiana
Current Conditions -  °F | °C
As of 8:35 PM on Monday 20 Oct 2014 (Local Time) from KGWB Reporting Station
Overcast Overcast  
Wind Chill: 12°   Ceiling: 6000
Heat Index: 12°   Visibility: 10mi
Dew Point:   Wind: 12mph
Humidity: 77%   Direction: 290°WNW
Pressure: 29.89"   Gusts: NA
Location:  41.3419°N, 85.0357°W
Report Text: KGWB 210035Z AUTO 29010KT 10SM OVC060 12/08 A2989 RMK AO2
Loading
Personal Weather Stations






























Interactive Weather Map
Tropical Storm Tracking
New forecast layout! Learn more

10-Day Weather Forecast

Advertisements
Track Severe Weather on mobile